sensor_id;sensor_type;location;lat;lon;timestamp;P1;durP1;ratioP1;P2;durP2;ratioP2
38037;SDS011;23843;51.320;12.340;2022-10-26T04:32:24;3.93;;;2.57;;
38037;SDS011;23843;51.320;12.340;2022-10-26T04:34:49;4.33;;;2.63;;
38037;SDS011;23843;51.320;12.340;2022-10-26T04:37:15;3.40;;;2.50;;
38037;SDS011;23843;51.320;12.340;2022-10-26T04:39:40;3.00;;;1.93;;
38037;SDS011;23843;51.320;12.340;2022-10-26T04:42:05;1.87;;;1.60;;
38037;SDS011;23843;51.320;12.340;2022-10-26T04:44:31;3.37;;;2.10;;
38037;SDS011;23843;51.320;12.340;2022-10-26T04:46:56;2.40;;;1.73;;
38037;SDS011;23843;51.320;12.340;2022-10-26T04:49:23;1.70;;;1.33;;
38037;SDS011;23843;51.320;12.340;2022-10-26T04:51:49;2.50;;;2.23;;
38037;SDS011;23843;51.320;12.340;2022-10-26T04:54:14;3.57;;;2.73;;
38037;SDS011;23843;51.320;12.340;2022-10-26T04:56:39;5.47;;;2.70;;
38037;SDS011;23843;51.320;12.340;2022-10-26T04:59:05;3.13;;;2.60;;
38037;SDS011;23843;51.320;12.340;2022-10-26T05:01:30;4.80;;;2.63;;
38037;SDS011;23843;51.320;12.340;2022-10-26T05:03:56;2.23;;;1.70;;
38037;SDS011;23843;51.320;12.340;2022-10-26T05:06:23;3.20;;;2.30;;
38037;SDS011;23843;51.320;12.340;2022-10-26T05:08:48;3.10;;;2.20;;
38037;SDS011;23843;51.320;12.340;2022-10-26T05:11:14;3.47;;;2.20;;
38037;SDS011;23843;51.320;12.340;2022-10-26T05:13:39;2.60;;;2.00;;
38037;SDS011;23843;51.320;12.340;2022-10-26T05:16:05;3.23;;;2.37;;
38037;SDS011;23843;51.320;12.340;2022-10-26T05:18:31;4.33;;;2.67;;
38037;SDS011;23843;51.320;12.340;2022-10-26T05:20:56;3.73;;;2.60;;
38037;SDS011;23843;51.320;12.340;2022-10-26T05:23:23;2.00;;;1.70;;
38037;SDS011;23843;51.320;12.340;2022-10-26T05:25:48;3.53;;;2.10;;
38037;SDS011;23843;51.320;12.340;2022-10-26T05:28:14;2.83;;;2.07;;
38037;SDS011;23843;51.320;12.340;2022-10-26T05:30:41;3.00;;;2.60;;
38037;SDS011;23843;51.320;12.340;2022-10-26T05:33:08;1.97;;;1.40;;
38037;SDS011;23843;51.320;12.340;2022-10-26T05:35:34;3.30;;;2.13;;
38037;SDS011;23843;51.320;12.340;2022-10-26T05:38:01;2.87;;;2.10;;
38037;SDS011;23843;51.320;12.340;2022-10-26T05:40:32;3.63;;;2.40;;
38037;SDS011;23843;51.320;12.340;2022-10-26T05:42:58;2.10;;;1.90;;
38037;SDS011;23843;51.320;12.340;2022-10-26T05:45:23;3.00;;;2.30;;
38037;SDS011;23843;51.320;12.340;2022-10-26T05:47:49;4.67;;;2.17;;
38037;SDS011;23843;51.320;12.340;2022-10-26T05:50:14;3.43;;;2.33;;
38037;SDS011;23843;51.320;12.340;2022-10-26T05:52:40;2.63;;;2.00;;
38037;SDS011;23843;51.320;12.340;2022-10-26T05:55:07;4.80;;;2.67;;
38037;SDS011;23843;51.320;12.340;2022-10-26T05:57:35;2.87;;;2.20;;
38037;SDS011;23843;51.320;12.340;2022-10-26T06:00:02;4.37;;;3.00;;
38037;SDS011;23843;51.320;12.340;2022-10-26T06:02:32;4.73;;;3.97;;
38037;SDS011;23843;51.320;12.340;2022-10-26T06:05:06;5.77;;;4.03;;
38037;SDS011;23843;51.320;12.340;2022-10-26T06:07:34;5.47;;;3.77;;
38037;SDS011;23843;51.320;12.340;2022-10-26T06:10:00;5.07;;;4.00;;
38037;SDS011;23843;51.320;12.340;2022-10-26T06:12:26;6.33;;;4.50;;
38037;SDS011;23843;51.320;12.340;2022-10-26T06:14:54;6.20;;;4.27;;
38037;SDS011;23843;51.320;12.340;2022-10-26T06:17:27;6.70;;;4.23;;
38037;SDS011;23843;51.320;12.340;2022-10-26T06:20:10;5.13;;;3.87;;
38037;SDS011;23843;51.320;12.340;2022-10-26T06:22:51;7.90;;;4.40;;
38037;SDS011;23843;51.320;12.340;2022-10-26T06:25:26;5.07;;;3.50;;
38037;SDS011;23843;51.320;12.340;2022-10-26T06:28:02;6.57;;;3.80;;
38037;SDS011;23843;51.320;12.340;2022-10-26T06:30:39;6.10;;;3.43;;
38037;SDS011;23843;51.320;12.340;2022-10-26T06:33:06;3.33;;;2.87;;
38037;SDS011;23843;51.320;12.340;2022-10-26T06:35:34;5.90;;;3.27;;
38037;SDS011;23843;51.320;12.340;2022-10-26T06:38:09;3.90;;;2.90;;
38037;SDS011;23843;51.320;12.340;2022-10-26T06:40:38;4.13;;;2.53;;
38037;SDS011;23843;51.320;12.340;2022-10-26T06:43:08;3.73;;;2.67;;
38037;SDS011;23843;51.320;12.340;2022-10-26T06:45:37;2.73;;;2.40;;
38037;SDS011;23843;51.320;12.340;2022-10-26T06:48:07;3.43;;;2.60;;
38037;SDS011;23843;51.320;12.340;2022-10-26T06:50:35;2.93;;;2.17;;
38037;SDS011;23843;51.320;12.340;2022-10-26T06:53:05;3.37;;;2.53;;
38037;SDS011;23843;51.320;12.340;2022-10-26T06:55:43;3.37;;;2.00;;
38037;SDS011;23843;51.320;12.340;2022-10-26T06:58:10;2.87;;;2.00;;
38037;SDS011;23843;51.320;12.340;2022-10-26T07:00:39;3.33;;;1.83;;
38037;SDS011;23843;51.320;12.340;2022-10-26T07:03:07;3.33;;;2.03;;
38037;SDS011;23843;51.320;12.340;2022-10-26T07:05:33;3.03;;;2.30;;
38037;SDS011;23843;51.320;12.340;2022-10-26T07:07:58;4.83;;;2.73;;
38037;SDS011;23843;51.320;12.340;2022-10-26T07:10:23;3.50;;;2.17;;
38037;SDS011;23843;51.320;12.340;2022-10-26T07:12:49;2.63;;;1.80;;
38037;SDS011;23843;51.320;12.340;2022-10-26T07:15:14;2.53;;;1.97;;
38037;SDS011;23843;51.320;12.340;2022-10-26T07:17:43;2.73;;;1.80;;
38037;SDS011;23843;51.320;12.340;2022-10-26T07:20:11;2.90;;;2.10;;
38037;SDS011;23843;51.320;12.340;2022-10-26T07:22:37;4.13;;;2.90;;
38037;SDS011;23843;51.320;12.340;2022-10-26T07:25:02;3.83;;;2.57;;
38037;SDS011;23843;51.320;12.340;2022-10-26T07:27:28;6.83;;;3.07;;
38037;SDS011;23843;51.320;12.340;2022-10-26T07:29:54;4.23;;;2.40;;
38037;SDS011;23843;51.320;12.340;2022-10-26T07:32:19;2.97;;;2.00;;
38037;SDS011;23843;51.320;12.340;2022-10-26T07:34:44;3.30;;;2.10;;
38037;SDS011;23843;51.320;12.340;2022-10-26T07:37:11;4.27;;;2.50;;
38037;SDS011;23843;51.320;12.340;2022-10-26T07:39:36;5.57;;;2.17;;
38037;SDS011;23843;51.320;12.340;2022-10-26T07:42:02;4.97;;;2.83;;
38037;SDS011;23843;51.320;12.340;2022-10-26T07:44:27;4.47;;;2.17;;
38037;SDS011;23843;51.320;12.340;2022-10-26T07:46:52;3.33;;;2.00;;
38037;SDS011;23843;51.320;12.340;2022-10-26T07:49:18;3.90;;;2.13;;
38037;SDS011;23843;51.320;12.340;2022-10-26T07:51:43;3.70;;;2.10;;
38037;SDS011;23843;51.320;12.340;2022-10-26T07:54:10;3.47;;;1.90;;
38037;SDS011;23843;51.320;12.340;2022-10-26T07:56:35;3.00;;;1.90;;
38037;SDS011;23843;51.320;12.340;2022-10-26T07:59:01;3.33;;;2.17;;
38037;SDS011;23843;51.320;12.340;2022-10-26T08:01:26;3.57;;;2.20;;
38037;SDS011;23843;51.320;12.340;2022-10-26T08:03:52;3.00;;;2.00;;
38037;SDS011;23843;51.320;12.340;2022-10-26T08:06:18;3.83;;;2.17;;
38037;SDS011;23843;51.320;12.340;2022-10-26T08:08:44;3.70;;;2.13;;
38037;SDS011;23843;51.320;12.340;2022-10-26T08:11:10;2.97;;;1.90;;
38037;SDS011;23843;51.320;12.340;2022-10-26T08:13:36;4.07;;;2.10;;
38037;SDS011;23843;51.320;12.340;2022-10-26T08:16:02;3.63;;;2.03;;
38037;SDS011;23843;51.320;12.340;2022-10-26T08:18:29;3.00;;;1.80;;
38037;SDS011;23843;51.320;12.340;2022-10-26T08:20:54;2.93;;;1.70;;
38037;SDS011;23843;51.320;12.340;2022-10-26T08:23:25;2.13;;;1.40;;
38037;SDS011;23843;51.320;12.340;2022-10-26T08:25:51;3.63;;;2.33;;
38037;SDS011;23843;51.320;12.340;2022-10-26T08:28:17;2.53;;;1.80;;
38037;SDS011;23843;51.320;12.340;2022-10-26T08:30:43;2.70;;;1.70;;
38037;SDS011;23843;51.320;12.340;2022-10-26T08:33:08;2.30;;;1.60;;
38037;SDS011;23843;51.320;12.340;2022-10-26T08:35:35;2.60;;;1.30;;
38037;SDS011;23843;51.320;12.340;2022-10-26T08:38:00;3.47;;;1.57;;
38037;SDS011;23843;51.320;12.340;2022-10-26T08:40:26;2.43;;;1.87;;
38037;SDS011;23843;51.320;12.340;2022-10-26T08:42:55;3.37;;;1.90;;
38037;SDS011;23843;51.320;12.340;2022-10-26T08:45:25;2.13;;;1.47;;
38037;SDS011;23843;51.320;12.340;2022-10-26T08:47:55;3.07;;;2.03;;
38037;SDS011;23843;51.320;12.340;2022-10-26T08:50:25;2.97;;;1.67;;
38037;SDS011;23843;51.320;12.340;2022-10-26T08:52:56;4.93;;;1.90;;
38037;SDS011;23843;51.320;12.340;2022-10-26T08:55:25;1.70;;;1.30;;
38037;SDS011;23843;51.320;12.340;2022-10-26T08:57:57;1.83;;;1.30;;
38037;SDS011;23843;51.320;12.340;2022-10-26T09:00:26;4.10;;;1.60;;
38037;SDS011;23843;51.320;12.340;2022-10-26T09:02:54;5.00;;;2.37;;
38037;SDS011;23843;51.320;12.340;2022-10-26T09:05:21;1.90;;;1.70;;
38037;SDS011;23843;51.320;12.340;2022-10-26T09:07:51;4.27;;;2.30;;
38037;SDS011;23843;51.320;12.340;2022-10-26T09:10:32;3.27;;;2.40;;
38037;SDS011;23843;51.320;12.340;2022-10-26T09:13:04;2.03;;;1.40;;
38037;SDS011;23843;51.320;12.340;2022-10-26T09:15:39;2.53;;;1.60;;
38037;SDS011;23843;51.320;12.340;2022-10-26T09:18:15;4.50;;;2.00;;
38037;SDS011;23843;51.320;12.340;2022-10-26T09:20:56;3.97;;;2.20;;
38037;SDS011;23843;51.320;12.340;2022-10-26T09:23:43;3.47;;;2.00;;
38037;SDS011;23843;51.320;12.340;2022-10-26T09:26:26;4.53;;;2.63;;
38037;SDS011;23843;51.320;12.340;2022-10-26T09:28:55;3.27;;;1.80;;
38037;SDS011;23843;51.320;12.340;2022-10-26T09:31:26;2.00;;;1.20;;
38037;SDS011;23843;51.320;12.340;2022-10-26T09:33:54;1.60;;;1.00;;
38037;SDS011;23843;51.320;12.340;2022-10-26T09:36:21;1.43;;;1.00;;
38037;SDS011;23843;51.320;12.340;2022-10-26T09:38:48;3.00;;;1.40;;
38037;SDS011;23843;51.320;12.340;2022-10-26T09:41:21;2.03;;;1.30;;
38037;SDS011;23843;51.320;12.340;2022-10-26T09:43:52;2.13;;;1.00;;
38037;SDS011;23843;51.320;12.340;2022-10-26T09:46:24;1.27;;;1.13;;
38037;SDS011;23843;51.320;12.340;2022-10-26T09:48:55;2.50;;;1.80;;
38037;SDS011;23843;51.320;12.340;2022-10-26T09:51:23;3.50;;;1.40;;
38037;SDS011;23843;51.320;12.340;2022-10-26T09:53:48;1.83;;;1.13;;
38037;SDS011;23843;51.320;12.340;2022-10-26T09:56:14;1.67;;;1.10;;
38037;SDS011;23843;51.320;12.340;2022-10-26T09:58:43;1.87;;;1.50;;
38037;SDS011;23843;51.320;12.340;2022-10-26T10:01:28;1.57;;;1.00;;
38037;SDS011;23843;51.320;12.340;2022-10-26T10:04:07;0.57;;;0.57;;
38037;SDS011;23843;51.320;12.340;2022-10-26T10:06:34;1.63;;;1.00;;
38037;SDS011;23843;51.320;12.340;2022-10-26T10:09:03;1.33;;;0.60;;
38037;SDS011;23843;51.320;12.340;2022-10-26T10:11:35;1.50;;;1.00;;
38037;SDS011;23843;51.320;12.340;2022-10-26T10:14:04;2.43;;;1.40;;
38037;SDS011;23843;51.320;12.340;2022-10-26T10:16:32;1.23;;;1.00;;
38037;SDS011;23843;51.320;12.340;2022-10-26T10:18:59;1.30;;;1.20;;
38037;SDS011;23843;51.320;12.340;2022-10-26T10:21:31;1.40;;;0.90;;
38037;SDS011;23843;51.320;12.340;2022-10-26T10:23:58;1.80;;;0.90;;
38037;SDS011;23843;51.320;12.340;2022-10-26T10:26:24;0.82;;;0.80;;
38037;SDS011;23843;51.320;12.340;2022-10-26T10:28:55;1.23;;;0.60;;
38037;SDS011;23843;51.320;12.340;2022-10-26T10:31:25;1.00;;;0.80;;
38037;SDS011;23843;51.320;12.340;2022-10-26T10:33:54;3.63;;;1.57;;
38037;SDS011;23843;51.320;12.340;2022-10-26T10:36:20;1.80;;;1.10;;
38037;SDS011;23843;51.320;12.340;2022-10-26T10:38:48;1.40;;;1.08;;
38037;SDS011;23843;51.320;12.340;2022-10-26T10:41:16;0.90;;;0.70;;
38037;SDS011;23843;51.320;12.340;2022-10-26T10:43:45;3.25;;;1.40;;
38037;SDS011;23843;51.320;12.340;2022-10-26T10:46:16;2.83;;;1.10;;
38037;SDS011;23843;51.320;12.340;2022-10-26T10:48:45;2.17;;;1.30;;
38037;SDS011;23843;51.320;12.340;2022-10-26T10:51:16;1.50;;;1.30;;
38037;SDS011;23843;51.320;12.340;2022-10-26T10:53:44;1.43;;;1.10;;
38037;SDS011;23843;51.320;12.340;2022-10-26T10:56:15;1.40;;;1.10;;
38037;SDS011;23843;51.320;12.340;2022-10-26T10:58:50;2.05;;;1.10;;
38037;SDS011;23843;51.320;12.340;2022-10-26T11:01:26;1.13;;;0.80;;
38037;SDS011;23843;51.320;12.340;2022-10-26T11:04:00;1.55;;;1.05;;
38037;SDS011;23843;51.320;12.340;2022-10-26T11:06:41;2.05;;;1.30;;
38037;SDS011;23843;51.320;12.340;2022-10-26T11:09:09;1.52;;;1.42;;
38037;SDS011;23843;51.320;12.340;2022-10-26T11:11:38;1.15;;;0.70;;
38037;SDS011;23843;51.320;12.340;2022-10-26T11:14:08;2.17;;;1.30;;
38037;SDS011;23843;51.320;12.340;2022-10-26T11:16:39;1.83;;;1.20;;
38037;SDS011;23843;51.320;12.340;2022-10-26T11:19:13;2.90;;;1.80;;
38037;SDS011;23843;51.320;12.340;2022-10-26T11:21:44;3.58;;;1.70;;
38037;SDS011;23843;51.320;12.340;2022-10-26T11:24:14;2.33;;;1.90;;
38037;SDS011;23843;51.320;12.340;2022-10-26T11:26:47;2.27;;;1.37;;
38037;SDS011;23843;51.320;12.340;2022-10-26T11:29:31;1.33;;;1.17;;
38037;SDS011;23843;51.320;12.340;2022-10-26T11:32:05;2.45;;;1.60;;
38037;SDS011;23843;51.320;12.340;2022-10-26T11:34:39;1.30;;;0.90;;
38037;SDS011;23843;51.320;12.340;2022-10-26T11:37:14;1.47;;;0.93;;
38037;SDS011;23843;51.320;12.340;2022-10-26T11:39:48;1.00;;;0.80;;
38037;SDS011;23843;51.320;12.340;2022-10-26T11:42:25;1.73;;;1.30;;
38037;SDS011;23843;51.320;12.340;2022-10-26T11:44:58;2.47;;;1.30;;
38037;SDS011;23843;51.320;12.340;2022-10-26T11:47:28;1.10;;;0.85;;
38037;SDS011;23843;51.320;12.340;2022-10-26T11:49:59;1.10;;;0.97;;
38037;SDS011;23843;51.320;12.340;2022-10-26T11:52:32;1.08;;;0.82;;
38037;SDS011;23843;51.320;12.340;2022-10-26T11:55:03;0.60;;;0.60;;
38037;SDS011;23843;51.320;12.340;2022-10-26T11:57:29;1.23;;;0.80;;
38037;SDS011;23843;51.320;12.340;2022-10-26T11:59:58;0.70;;;0.70;;
38037;SDS011;23843;51.320;12.340;2022-10-26T12:02:25;1.20;;;0.80;;
38037;SDS011;23843;51.320;12.340;2022-10-26T12:04:52;1.50;;;1.40;;
38037;SDS011;23843;51.320;12.340;2022-10-26T12:07:25;1.30;;;0.93;;
38037;SDS011;23843;51.320;12.340;2022-10-26T12:09:54;1.30;;;1.10;;
38037;SDS011;23843;51.320;12.340;2022-10-26T12:12:22;1.00;;;0.90;;
38037;SDS011;23843;51.320;12.340;2022-10-26T12:14:55;0.70;;;0.60;;
38037;SDS011;23843;51.320;12.340;2022-10-26T12:17:28;0.40;;;0.40;;
38037;SDS011;23843;51.320;12.340;2022-10-26T12:20:00;0.95;;;0.60;;
38037;SDS011;23843;51.320;12.340;2022-10-26T12:22:36;0.55;;;0.55;;
38037;SDS011;23843;51.320;12.340;2022-10-26T12:25:05;0.80;;;0.68;;
38037;SDS011;23843;51.320;12.340;2022-10-26T12:27:48;1.00;;;0.90;;
38037;SDS011;23843;51.320;12.340;2022-10-26T12:30:23;0.88;;;0.70;;
38037;SDS011;23843;51.320;12.340;2022-10-26T12:32:51;1.10;;;1.00;;
38037;SDS011;23843;51.320;12.340;2022-10-26T12:35:28;0.70;;;0.70;;
38037;SDS011;23843;51.320;12.340;2022-10-26T12:37:58;1.10;;;0.73;;
38037;SDS011;23843;51.320;12.340;2022-10-26T12:40:38;0.95;;;0.70;;
38037;SDS011;23843;51.320;12.340;2022-10-26T12:49:07;2.55;;;1.48;;
38037;SDS011;23843;51.320;12.340;2022-10-26T12:52:20;1.77;;;1.03;;
38037;SDS011;23843;51.320;12.340;2022-10-26T12:55:03;3.20;;;1.30;;
38037;SDS011;23843;51.320;12.340;2022-10-26T12:57:54;1.10;;;0.90;;
38037;SDS011;23843;51.320;12.340;2022-10-26T13:00:28;1.67;;;1.10;;
38037;SDS011;23843;51.320;12.340;2022-10-26T13:02:57;1.17;;;0.90;;
38037;SDS011;23843;51.320;12.340;2022-10-26T13:05:35;1.60;;;0.90;;
38037;SDS011;23843;51.320;12.340;2022-10-26T13:08:19;1.38;;;1.08;;
38037;SDS011;23843;51.320;12.340;2022-10-26T13:10:46;1.15;;;0.80;;
38037;SDS011;23843;51.320;12.340;2022-10-26T13:13:27;1.97;;;1.00;;
38037;SDS011;23843;51.320;12.340;2022-10-26T13:15:55;1.10;;;0.90;;
38037;SDS011;23843;51.320;12.340;2022-10-26T13:18:22;1.27;;;0.80;;
38037;SDS011;23843;51.320;12.340;2022-10-26T13:20:51;1.73;;;1.07;;
38037;SDS011;23843;51.320;12.340;2022-10-26T13:23:23;3.17;;;1.20;;
38037;SDS011;23843;51.320;12.340;2022-10-26T13:26:00;1.43;;;1.00;;
38037;SDS011;23843;51.320;12.340;2022-10-26T13:28:31;1.23;;;0.80;;
38037;SDS011;23843;51.320;12.340;2022-10-26T13:31:09;2.30;;;0.80;;
38037;SDS011;23843;51.320;12.340;2022-10-26T13:33:37;1.10;;;0.90;;
38037;SDS011;23843;51.320;12.340;2022-10-26T13:36:10;1.87;;;1.10;;
38037;SDS011;23843;51.320;12.340;2022-10-26T13:38:41;2.67;;;1.00;;
38037;SDS011;23843;51.320;12.340;2022-10-26T13:41:13;1.67;;;1.00;;
38037;SDS011;23843;51.320;12.340;2022-10-26T13:43:46;2.77;;;1.70;;
38037;SDS011;23843;51.320;12.340;2022-10-26T13:46:19;2.23;;;1.83;;
38037;SDS011;23843;51.320;12.340;2022-10-26T13:48:49;3.27;;;2.10;;
38037;SDS011;23843;51.320;12.340;2022-10-26T13:51:17;2.37;;;1.20;;
38037;SDS011;23843;51.320;12.340;2022-10-26T13:53:48;1.47;;;0.90;;
38037;SDS011;23843;51.320;12.340;2022-10-26T13:56:21;0.90;;;0.80;;
38037;SDS011;23843;51.320;12.340;2022-10-26T13:58:54;0.57;;;0.57;;
38037;SDS011;23843;51.320;12.340;2022-10-26T14:01:24;0.67;;;0.67;;
38037;SDS011;23843;51.320;12.340;2022-10-26T14:03:50;1.33;;;0.87;;
38037;SDS011;23843;51.320;12.340;2022-10-26T14:06:17;1.00;;;0.80;;
38037;SDS011;23843;51.320;12.340;2022-10-26T14:08:47;0.50;;;0.50;;
38037;SDS011;23843;51.320;12.340;2022-10-26T14:11:16;2.60;;;1.20;;
38037;SDS011;23843;51.320;12.340;2022-10-26T14:13:43;1.40;;;1.00;;
38037;SDS011;23843;51.320;12.340;2022-10-26T14:16:11;1.90;;;1.10;;
38037;SDS011;23843;51.320;12.340;2022-10-26T14:18:39;1.97;;;1.10;;
38037;SDS011;23843;51.320;12.340;2022-10-26T14:21:05;1.03;;;0.93;;
38037;SDS011;23843;51.320;12.340;2022-10-26T14:23:43;1.03;;;0.73;;
38037;SDS011;23843;51.320;12.340;2022-10-26T14:26:16;0.67;;;0.67;;
38037;SDS011;23843;51.320;12.340;2022-10-26T14:28:44;1.00;;;0.63;;
38037;SDS011;23843;51.320;12.340;2022-10-26T14:31:19;1.10;;;0.83;;
38037;SDS011;23843;51.320;12.340;2022-10-26T14:33:46;1.10;;;1.00;;
38037;SDS011;23843;51.320;12.340;2022-10-26T14:36:11;1.13;;;1.00;;
38037;SDS011;23843;51.320;12.340;2022-10-26T14:38:40;1.43;;;0.90;;
38037;SDS011;23843;51.320;12.340;2022-10-26T14:41:09;1.63;;;1.20;;
38037;SDS011;23843;51.320;12.340;2022-10-26T14:43:35;1.10;;;0.90;;
38037;SDS011;23843;51.320;12.340;2022-10-26T14:46:01;0.53;;;0.53;;
38037;SDS011;23843;51.320;12.340;2022-10-26T14:48:28;1.23;;;0.93;;
38037;SDS011;23843;51.320;12.340;2022-10-26T14:50:56;1.13;;;0.90;;
38037;SDS011;23843;51.320;12.340;2022-10-26T14:53:30;1.20;;;1.10;;
38037;SDS011;23843;51.320;12.340;2022-10-26T14:56:00;2.13;;;1.40;;
38037;SDS011;23843;51.320;12.340;2022-10-26T14:58:31;1.20;;;1.10;;
38037;SDS011;23843;51.320;12.340;2022-10-26T15:01:13;1.60;;;0.90;;
38037;SDS011;23843;51.320;12.340;2022-10-26T15:03:41;0.60;;;0.60;;
38037;SDS011;23843;51.320;12.340;2022-10-26T15:11:54;0.93;;;0.83;;
38037;SDS011;23843;51.320;12.340;2022-10-26T15:14:20;1.40;;;1.20;;
38037;SDS011;23843;51.320;12.340;2022-10-26T15:16:49;1.37;;;1.00;;
38037;SDS011;23843;51.320;12.340;2022-10-26T15:19:18;1.00;;;0.90;;
38037;SDS011;23843;51.320;12.340;2022-10-26T15:21:45;1.40;;;1.10;;
38037;SDS011;23843;51.320;12.340;2022-10-26T15:24:16;0.70;;;0.70;;
38037;SDS011;23843;51.320;12.340;2022-10-26T15:26:51;1.67;;;1.00;;
38037;SDS011;23843;51.320;12.340;2022-10-26T15:32:01;1.13;;;1.03;;
38037;SDS011;23843;51.320;12.340;2022-10-26T15:34:30;1.97;;;1.20;;
38037;SDS011;23843;51.320;12.340;2022-10-26T15:36:55;1.43;;;1.00;;
38037;SDS011;23843;51.320;12.340;2022-10-26T15:39:21;0.83;;;0.80;;
38037;SDS011;23843;51.320;12.340;2022-10-26T15:41:46;2.07;;;1.40;;
38037;SDS011;23843;51.320;12.340;2022-10-26T15:44:12;2.27;;;1.50;;
38037;SDS011;23843;51.320;12.340;2022-10-26T15:46:40;4.13;;;1.90;;
38037;SDS011;23843;51.320;12.340;2022-10-26T15:49:06;1.67;;;1.20;;
38037;SDS011;23843;51.320;12.340;2022-10-26T15:51:39;1.20;;;1.00;;
38037;SDS011;23843;51.320;12.340;2022-10-26T15:54:05;2.10;;;1.90;;
38037;SDS011;23843;51.320;12.340;2022-10-26T15:56:30;1.90;;;1.70;;
38037;SDS011;23843;51.320;12.340;2022-10-26T15:58:56;1.87;;;1.40;;
38037;SDS011;23843;51.320;12.340;2022-10-26T16:01:22;1.03;;;0.90;;
38037;SDS011;23843;51.320;12.340;2022-10-26T16:03:48;0.70;;;0.70;;
38037;SDS011;23843;51.320;12.340;2022-10-26T16:06:15;0.60;;;0.60;;
38037;SDS011;23843;51.320;12.340;2022-10-26T16:08:44;1.43;;;0.90;;
38037;SDS011;23843;51.320;12.340;2022-10-26T16:11:14;1.30;;;0.80;;
38037;SDS011;23843;51.320;12.340;2022-10-26T16:13:39;0.80;;;0.70;;
38037;SDS011;23843;51.320;12.340;2022-10-26T16:16:06;0.63;;;0.63;;
38037;SDS011;23843;51.320;12.340;2022-10-26T16:18:36;0.67;;;0.67;;
38037;SDS011;23843;51.320;12.340;2022-10-26T16:21:01;2.07;;;1.00;;
38037;SDS011;23843;51.320;12.340;2022-10-26T16:23:27;0.80;;;0.70;;
38037;SDS011;23843;51.320;12.340;2022-10-26T16:25:53;0.50;;;0.50;;
38037;SDS011;23843;51.320;12.340;2022-10-26T16:28:19;0.80;;;0.60;;
38037;SDS011;23843;51.320;12.340;2022-10-26T16:30:44;1.17;;;1.00;;
38037;SDS011;23843;51.320;12.340;2022-10-26T16:33:10;0.93;;;0.83;;
38037;SDS011;23843;51.320;12.340;2022-10-26T16:35:35;0.77;;;0.70;;
38037;SDS011;23843;51.320;12.340;2022-10-26T16:38:01;0.67;;;0.60;;
38037;SDS011;23843;51.320;12.340;2022-10-26T16:40:26;0.90;;;0.90;;
38037;SDS011;23843;51.320;12.340;2022-10-26T16:42:53;1.23;;;1.13;;
38037;SDS011;23843;51.320;12.340;2022-10-26T16:45:18;0.60;;;0.50;;
38037;SDS011;23843;51.320;12.340;2022-10-26T16:47:43;1.70;;;1.40;;
38037;SDS011;23843;51.320;12.340;2022-10-26T16:50:10;1.63;;;1.30;;
38037;SDS011;23843;51.320;12.340;2022-10-26T16:52:37;2.07;;;1.17;;
38037;SDS011;23843;51.320;12.340;2022-10-26T16:55:03;1.87;;;1.30;;
38037;SDS011;23843;51.320;12.340;2022-10-26T16:57:29;1.37;;;1.23;;
38037;SDS011;23843;51.320;12.340;2022-10-26T16:59:56;1.37;;;1.17;;
38037;SDS011;23843;51.320;12.340;2022-10-26T17:02:22;1.40;;;1.00;;
38037;SDS011;23843;51.320;12.340;2022-10-26T17:04:47;1.27;;;0.90;;
38037;SDS011;23843;51.320;12.340;2022-10-26T17:07:13;0.80;;;0.70;;
38037;SDS011;23843;51.320;12.340;2022-10-26T17:09:38;0.70;;;0.70;;
38037;SDS011;23843;51.320;12.340;2022-10-26T17:12:04;0.50;;;0.50;;
38037;SDS011;23843;51.320;12.340;2022-10-26T17:14:29;0.50;;;0.50;;
38037;SDS011;23843;51.320;12.340;2022-10-26T17:16:56;0.43;;;0.43;;
38037;SDS011;23843;51.320;12.340;2022-10-26T17:19:22;0.70;;;0.70;;
38037;SDS011;23843;51.320;12.340;2022-10-26T17:21:47;0.80;;;0.70;;
38037;SDS011;23843;51.320;12.340;2022-10-26T17:24:12;0.70;;;0.60;;
38037;SDS011;23843;51.320;12.340;2022-10-26T17:26:38;0.47;;;0.47;;
38037;SDS011;23843;51.320;12.340;2022-10-26T17:29:03;0.60;;;0.60;;
38037;SDS011;23843;51.320;12.340;2022-10-26T17:31:29;0.50;;;0.50;;
38037;SDS011;23843;51.320;12.340;2022-10-26T17:33:56;0.60;;;0.57;;
38037;SDS011;23843;51.320;12.340;2022-10-26T17:36:22;0.53;;;0.53;;
38037;SDS011;23843;51.320;12.340;2022-10-26T17:38:49;0.50;;;0.50;;
38037;SDS011;23843;51.320;12.340;2022-10-26T17:41:15;0.60;;;0.60;;
38037;SDS011;23843;51.320;12.340;2022-10-26T17:43:43;0.70;;;0.60;;
38037;SDS011;23843;51.320;12.340;2022-10-26T17:46:10;0.53;;;0.53;;
38037;SDS011;23843;51.320;12.340;2022-10-26T17:48:37;1.07;;;0.83;;
38037;SDS011;23843;51.320;12.340;2022-10-26T17:51:05;0.60;;;0.60;;
38037;SDS011;23843;51.320;12.340;2022-10-26T17:53:31;0.70;;;0.70;;
38037;SDS011;23843;51.320;12.340;2022-10-26T17:56:00;1.30;;;1.20;;
38037;SDS011;23843;51.320;12.340;2022-10-26T17:58:26;0.70;;;0.60;;
38037;SDS011;23843;51.320;12.340;2022-10-26T18:00:52;0.50;;;0.50;;
38037;SDS011;23843;51.320;12.340;2022-10-26T18:03:17;0.33;;;0.33;;
38037;SDS011;23843;51.320;12.340;2022-10-26T18:05:47;0.70;;;0.70;;
38037;SDS011;23843;51.320;12.340;2022-10-26T18:08:14;0.43;;;0.43;;
38037;SDS011;23843;51.320;12.340;2022-10-26T18:10:44;0.50;;;0.50;;
38037;SDS011;23843;51.320;12.340;2022-10-26T18:13:10;0.50;;;0.50;;
38037;SDS011;23843;51.320;12.340;2022-10-26T18:15:36;0.50;;;0.50;;
38037;SDS011;23843;51.320;12.340;2022-10-26T18:18:01;0.70;;;0.70;;
38037;SDS011;23843;51.320;12.340;2022-10-26T18:20:26;2.00;;;1.20;;
38037;SDS011;23843;51.320;12.340;2022-10-26T18:22:52;1.47;;;1.00;;
38037;SDS011;23843;51.320;12.340;2022-10-26T18:25:18;2.23;;;1.30;;
38037;SDS011;23843;51.320;12.340;2022-10-26T18:27:44;1.40;;;1.20;;
38037;SDS011;23843;51.320;12.340;2022-10-26T18:30:09;1.17;;;1.00;;
38037;SDS011;23843;51.320;12.340;2022-10-26T18:32:35;0.90;;;0.70;;
38037;SDS011;23843;51.320;12.340;2022-10-26T18:35:01;0.90;;;0.90;;
38037;SDS011;23843;51.320;12.340;2022-10-26T18:37:26;1.50;;;1.10;;
38037;SDS011;23843;51.320;12.340;2022-10-26T18:39:51;2.30;;;2.10;;
38037;SDS011;23843;51.320;12.340;2022-10-26T18:42:18;1.83;;;1.63;;
38037;SDS011;23843;51.320;12.340;2022-10-26T18:44:44;1.90;;;1.53;;
38037;SDS011;23843;51.320;12.340;2022-10-26T18:47:09;2.00;;;1.57;;
38037;SDS011;23843;51.320;12.340;2022-10-26T18:49:34;1.93;;;1.50;;
38037;SDS011;23843;51.320;12.340;2022-10-26T18:52:00;3.03;;;2.13;;
38037;SDS011;23843;51.320;12.340;2022-10-26T18:54:25;2.43;;;2.23;;
38037;SDS011;23843;51.320;12.340;2022-10-26T18:56:50;2.57;;;2.00;;
38037;SDS011;23843;51.320;12.340;2022-10-26T18:59:17;2.77;;;2.00;;
38037;SDS011;23843;51.320;12.340;2022-10-26T19:01:42;3.00;;;2.30;;
38037;SDS011;23843;51.320;12.340;2022-10-26T19:04:08;4.53;;;2.60;;
38037;SDS011;23843;51.320;12.340;2022-10-26T19:06:35;2.60;;;1.97;;
38037;SDS011;23843;51.320;12.340;2022-10-26T19:09:02;1.60;;;1.40;;
38037;SDS011;23843;51.320;12.340;2022-10-26T19:11:29;1.80;;;1.50;;
38037;SDS011;23843;51.320;12.340;2022-10-26T19:13:55;1.93;;;1.70;;
38037;SDS011;23843;51.320;12.340;2022-10-26T19:16:23;2.80;;;2.20;;
38037;SDS011;23843;51.320;12.340;2022-10-26T19:18:50;3.17;;;2.33;;
38037;SDS011;23843;51.320;12.340;2022-10-26T19:21:15;3.20;;;2.30;;
38037;SDS011;23843;51.320;12.340;2022-10-26T19:23:43;3.13;;;2.40;;
38037;SDS011;23843;51.320;12.340;2022-10-26T19:26:10;3.47;;;2.63;;
38037;SDS011;23843;51.320;12.340;2022-10-26T19:28:37;2.87;;;2.03;;